Time;durP1;ratioP1;P1;durP2;ratioP2;P2;SDS_P1;SDS_P2;PMS_P1;PMS_P2;Temp;Humidity;BMP_temperature;BMP_pressure;BME280_temperature;BME280_humidity;BME280_pressure;Samples;Min_cycle;Max_cycle;Signal;HPM_P1;HPM_P2
2024/01/28 00:01:06;;;;;;;3.40;3.10;;;2.80;99.90;;;;;;5039681;28;20205;-91
2024/01/28 00:03:32;;;;;;;2.47;2.27;;;2.50;99.90;;;;;;5056324;28;20220;-90
2024/01/28 00:05:58;;;;;;;2.50;2.20;;;2.70;99.90;;;;;;5072644;28;20209;-91
2024/01/28 00:08:25;;;;;;;7.17;2.33;;;2.30;99.90;;;;;;5073477;28;20248;-91
2024/01/28 00:10:53;;;;;;;2.20;2.03;;;3.00;99.90;;;;;;5056345;28;20173;-91
2024/01/28 00:13:23;;;;;;;1.73;1.63;;;2.90;99.90;;;;;;5055964;28;20228;-92
2024/01/28 00:15:50;;;;;;;2.33;1.90;;;2.80;99.90;;;;;;5040120;28;20209;-90
2024/01/28 00:18:15;;;;;;;1.73;1.63;;;2.60;99.90;;;;;;5055898;28;20213;-92
2024/01/28 00:20:41;;;;;;;2.10;1.80;;;2.90;99.90;;;;;;5072392;28;20220;-92
2024/01/28 00:23:07;;;;;;;1.27;1.27;;;2.70;99.90;;;;;;5073156;28;20177;-91
2024/01/28 00:25:33;;;;;;;3.63;2.50;;;2.70;99.90;;;;;;5072729;28;20711;-91
2024/01/28 00:27:58;;;;;;;3.07;2.87;;;2.70;99.90;;;;;;5072179;28;20700;-91
2024/01/28 00:30:30;;;;;;;5.43;2.77;;;2.80;99.90;;;;;;5055518;28;20252;-92
2024/01/28 00:32:55;;;;;;;0.80;0.80;;;2.90;99.90;;;;;;5039913;28;20291;-91
2024/01/28 00:35:21;;;;;;;1.70;1.53;;;3.10;99.90;;;;;;5072449;28;20209;-91
2024/01/28 00:37:47;;;;;;;2.13;2.03;;;3.10;99.90;;;;;;5073296;28;20262;-92
2024/01/28 00:40:13;;;;;;;1.50;1.40;;;2.80;99.90;;;;;;5072599;28;20351;-91
2024/01/28 00:42:38;;;;;;;6.60;2.20;;;3.10;99.90;;;;;;5055356;28;20221;-91
2024/01/28 00:45:04;;;;;;;1.13;1.00;;;3.10;99.90;;;;;;5055106;28;20220;-87
2024/01/28 00:47:30;;;;;;;7.83;2.93;;;2.90;99.90;;;;;;5072175;28;20178;-92
2024/01/28 00:49:57;;;;;;;4.27;4.03;;;3.00;99.90;;;;;;5056024;28;20216;-93
2024/01/28 00:52:22;;;;;;;1.47;1.47;;;2.90;99.90;;;;;;5039094;28;20278;-92
2024/01/28 00:54:48;;;;;;;1.27;1.27;;;2.70;99.90;;;;;;5072275;28;20225;-92
2024/01/28 00:57:14;;;;;;;3.70;3.50;;;3.10;99.90;;;;;;5072118;28;20209;-90
2024/01/28 00:59:40;;;;;;;3.17;1.70;;;3.00;99.90;;;;;;5072134;28;20262;-92
2024/01/28 01:02:05;;;;;;;1.37;1.33;;;3.00;99.90;;;;;;5039222;28;20173;-92
2024/01/28 01:04:31;;;;;;;5.40;3.50;;;3.10;99.90;;;;;;5055618;28;20208;-92
2024/01/28 01:06:57;;;;;;;3.30;2.60;;;2.90;99.90;;;;;;5038776;28;20221;-90
2024/01/28 01:09:23;;;;;;;1.57;1.30;;;3.00;99.90;;;;;;5038441;28;20300;-91
2024/01/28 01:11:48;;;;;;;1.57;1.30;;;3.20;99.90;;;;;;5038612;28;20293;-90
2024/01/28 01:14:14;;;;;;;2.20;1.80;;;3.00;99.90;;;;;;5055644;28;20634;-93
2024/01/28 01:16:40;;;;;;;1.97;1.87;;;2.90;99.90;;;;;;5055702;28;20658;-92
2024/01/28 01:19:06;;;;;;;5.73;2.10;;;2.80;99.90;;;;;;5055285;28;20209;-91
2024/01/28 01:21:32;;;;;;;2.67;2.47;;;3.00;99.90;;;;;;5054925;28;20213;-92
2024/01/28 01:23:57;;;;;;;0.90;0.90;;;2.80;99.90;;;;;;5071954;28;20209;-90
2024/01/28 01:26:23;;;;;;;3.50;2.40;;;3.00;99.90;;;;;;5054975;28;20176;-91
2024/01/28 01:28:49;;;;;;;1.47;1.37;;;3.00;99.90;;;;;;5055708;28;20205;-93
2024/01/28 01:31:16;;;;;;;2.83;2.43;;;3.00;99.90;;;;;;5054391;28;20291;-92
2024/01/28 01:33:42;;;;;;;2.47;2.27;;;2.70;99.90;;;;;;5054608;28;20220;-91
2024/01/28 01:36:08;;;;;;;1.70;1.60;;;3.00;99.90;;;;;;5072581;28;20209;-91
2024/01/28 01:38:33;;;;;;;1.30;1.30;;;3.00;99.90;;;;;;5073136;28;20668;-92
2024/01/28 01:40:59;;;;;;;7.20;1.27;;;2.90;99.90;;;;;;5059602;28;20174;-89
2024/01/28 01:43:25;;;;;;;1.80;1.50;;;2.90;99.90;;;;;;5075900;28;20275;-93
2024/01/28 01:45:52;;;;;;;5.60;3.13;;;2.80;99.90;;;;;;5076195;28;20259;-91
2024/01/28 01:48:18;;;;;;;0.93;0.93;;;2.80;99.90;;;;;;5058539;28;20209;-91
2024/01/28 01:50:45;;;;;;;0.93;0.93;;;2.80;99.90;;;;;;5058411;28;20285;-93
2024/01/28 01:53:11;;;;;;;3.93;2.63;;;3.10;99.90;;;;;;5059404;28;20260;-89
2024/01/28 01:55:39;;;;;;;1.60;1.33;;;3.10;99.90;;;;;;5076485;28;20221;-91
2024/01/28 01:58:06;;;;;;;1.27;1.27;;;3.00;99.90;;;;;;5076296;28;20228;-92
2024/01/28 02:00:34;;;;;;;1.83;1.73;;;2.80;99.90;;;;;;5076201;28;20213;-90
2024/01/28 02:03:03;;;;;;;1.87;1.47;;;3.10;99.90;;;;;;5075252;28;20213;-91
2024/01/28 02:05:29;;;;;;;3.90;2.20;;;2.90;99.90;;;;;;5058192;28;20181;-92
2024/01/28 02:07:54;;;;;;;0.73;0.73;;;3.00;99.90;;;;;;5041967;28;20200;-93
2024/01/28 02:10:25;;;;;;;3.10;1.10;;;3.00;99.90;;;;;;5041764;28;20257;-92
2024/01/28 02:12:50;;;;;;;2.27;2.07;;;3.20;99.90;;;;;;5042008;28;20217;-92
2024/01/28 02:15:17;;;;;;;0.60;0.60;;;2.90;99.90;;;;;;5041561;28;20205;-92
2024/01/28 02:17:43;;;;;;;4.47;0.80;;;2.90;99.90;;;;;;5057555;28;20301;-92
2024/01/28 02:20:09;;;;;;;1.00;1.00;;;3.10;99.90;;;;;;5058491;28;20185;-92
2024/01/28 02:22:35;;;;;;;3.80;1.83;;;3.10;99.90;;;;;;5074509;28;20228;-93
2024/01/28 02:25:03;;;;;;;0.30;0.30;;;3.20;99.90;;;;;;5041319;28;20299;-92
2024/01/28 02:27:29;;;;;;;1.40;1.33;;;3.00;99.90;;;;;;5058168;28;20304;-93
2024/01/28 02:29:55;;;;;;;8.33;1.33;;;3.20;99.90;;;;;;5074309;28;20253;-92
2024/01/28 02:32:21;;;;;;;2.80;1.93;;;3.30;99.90;;;;;;5057511;28;20240;-91
2024/01/28 02:34:47;;;;;;;2.80;1.87;;;3.30;99.90;;;;;;5058270;28;20178;-93
2024/01/28 02:37:13;;;;;;;2.03;1.93;;;3.40;99.90;;;;;;5041049;28;20213;-92
2024/01/28 02:39:39;;;;;;;0.70;0.70;;;3.20;99.90;;;;;;5057781;28;20225;-92
2024/01/28 02:42:05;;;;;;;4.30;3.67;;;3.40;99.90;;;;;;5058096;28;20217;-92
2024/01/28 02:44:32;;;;;;;1.93;1.87;;;3.10;99.90;;;;;;5057621;28;20177;-93
2024/01/28 02:46:57;;;;;;;1.90;1.57;;;3.10;99.90;;;;;;5058257;28;20233;-92
2024/01/28 02:49:23;;;;;;;0.93;0.93;;;3.20;99.90;;;;;;5057721;28;20732;-93
2024/01/28 02:51:52;;;;;;;1.13;1.13;;;3.40;99.90;;;;;;5057211;28;20205;-92
2024/01/28 02:54:18;;;;;;;0.93;0.93;;;3.10;99.90;;;;;;5057319;28;20216;-93
2024/01/28 02:56:44;;;;;;;3.67;2.87;;;3.40;99.90;;;;;;5057369;28;20209;-93
2024/01/28 02:59:10;;;;;;;2.07;1.97;;;3.40;99.90;;;;;;5041807;28;20292;-91
2024/01/28 03:01:46;;;;;;;0.57;0.57;;;3.30;99.90;;;;;;5056452;28;20217;-92
2024/01/28 03:04:12;;;;;;;2.57;1.53;;;3.30;99.90;;;;;;5056905;28;20238;-91
2024/01/28 03:06:37;;;;;;;1.80;0.60;;;3.20;99.90;;;;;;5056951;28;20217;-91
2024/01/28 03:09:04;;;;;;;1.00;0.87;;;3.20;99.90;;;;;;5074476;28;20252;-92
2024/01/28 03:11:30;;;;;;;1.30;1.30;;;3.20;99.90;;;;;;5056626;28;20182;-92
2024/01/28 03:13:56;;;;;;;1.07;1.07;;;3.30;99.90;;;;;;5074300;28;20182;-91
2024/01/28 03:16:22;;;;;;;0.37;0.37;;;3.30;99.90;;;;;;5073558;28;20591;-91
2024/01/28 03:18:48;;;;;;;0.83;0.83;;;3.30;99.90;;;;;;5056924;28;20228;-91
2024/01/28 03:21:14;;;;;;;0.80;0.80;;;3.00;99.90;;;;;;5073736;28;20217;-91
2024/01/28 03:23:39;;;;;;;0.70;0.70;;;3.20;99.90;;;;;;5056562;28;20213;-89
2024/01/28 03:26:05;;;;;;;6.03;1.97;;;3.00;99.90;;;;;;5057082;28;20182;-91
2024/01/28 03:28:31;;;;;;;0.70;0.70;;;3.10;99.90;;;;;;5040084;28;20308;-89
2024/01/28 03:30:57;;;;;;;2.30;2.20;;;3.10;99.90;;;;;;5056437;28;20264;-91
2024/01/28 03:33:23;;;;;;;1.07;1.07;;;2.90;99.90;;;;;;5056413;28;20660;-90
2024/01/28 03:35:48;;;;;;;1.60;1.50;;;2.90;99.90;;;;;;5073454;28;20305;-91
2024/01/28 03:38:14;;;;;;;1.60;1.53;;;3.10;99.90;;;;;;5073291;28;20173;-90
2024/01/28 03:40:40;;;;;;;2.37;2.27;;;3.10;99.90;;;;;;5040315;28;20173;-89
2024/01/28 03:43:06;;;;;;;5.37;1.03;;;3.10;99.90;;;;;;5056209;28;20560;-92
2024/01/28 03:45:31;;;;;;;1.00;1.00;;;2.80;99.90;;;;;;5056649;28;20217;-90
2024/01/28 03:47:57;;;;;;;0.63;0.47;;;3.10;99.90;;;;;;5055936;28;20209;-91
2024/01/28 03:50:24;;;;;;;1.80;1.70;;;3.10;99.90;;;;;;5056633;28;20241;-89
2024/01/28 03:52:50;;;;;;;1.03;1.03;;;2.80;99.90;;;;;;5056933;28;20219;-91
2024/01/28 03:55:15;;;;;;;2.30;2.07;;;2.90;99.90;;;;;;5039510;28;20296;-89
2024/01/28 03:57:43;;;;;;;1.00;1.00;;;2.90;99.90;;;;;;5039778;28;20212;-89
2024/01/28 04:00:12;;;;;;;1.07;0.97;;;2.90;99.90;;;;;;5040130;28;20737;-90
2024/01/28 04:02:38;;;;;;;8.60;1.67;;;3.00;99.90;;;;;;5055510;28;20205;-90
2024/01/28 04:05:05;;;;;;;2.17;1.97;;;2.90;99.90;;;;;;5072898;28;20216;-90
2024/01/28 04:07:31;;;;;;;1.13;1.13;;;2.90;99.90;;;;;;5039229;28;20213;-91
2024/01/28 04:09:57;;;;;;;0.87;0.87;;;2.70;99.90;;;;;;5055519;28;20685;-90
2024/01/28 04:12:23;;;;;;;4.47;1.83;;;2.90;99.90;;;;;;5072847;28;20274;-91
2024/01/28 04:14:49;;;;;;;1.97;1.87;;;2.80;99.90;;;;;;5073277;28;20213;-91
2024/01/28 04:17:14;;;;;;;0.73;0.73;;;2.80;99.90;;;;;;5039557;28;20204;-90
2024/01/28 04:19:40;;;;;;;2.03;1.90;;;2.80;99.90;;;;;;5055867;28;20181;-91
2024/01/28 04:22:10;;;;;;;3.77;2.30;;;2.70;99.90;;;;;;5073448;28;20220;-90
2024/01/28 04:24:35;;;;;;;2.63;2.43;;;2.50;99.90;;;;;;5071989;28;20223;-91
2024/01/28 04:27:01;;;;;;;1.43;1.27;;;2.70;99.90;;;;;;5039208;28;20308;-91
2024/01/28 04:29:27;;;;;;;4.83;1.27;;;2.60;99.90;;;;;;5055359;28;20220;-88
2024/01/28 04:31:56;;;;;;;2.93;1.37;;;2.60;99.90;;;;;;5055668;28;20245;-92
2024/01/28 04:34:22;;;;;;;2.17;1.90;;;2.50;99.90;;;;;;5072297;28;20220;-90
2024/01/28 04:36:48;;;;;;;9.43;3.33;;;2.60;99.90;;;;;;5055476;28;20213;-90
2024/01/28 04:39:15;;;;;;;0.87;0.87;;;2.40;99.90;;;;;;5039268;28;20730;-91
2024/01/28 04:41:41;;;;;;;1.47;1.37;;;2.20;99.90;;;;;;5038603;28;20216;-90
2024/01/28 04:44:07;;;;;;;1.47;1.37;;;2.30;99.90;;;;;;5056178;28;20638;-91
2024/01/28 04:46:33;;;;;;;0.97;0.97;;;2.30;99.90;;;;;;5072181;28;20218;-91
2024/01/28 04:49:02;;;;;;;3.27;3.07;;;2.40;99.90;;;;;;5054842;28;20236;-90
2024/01/28 04:51:30;;;;;;;1.63;1.53;;;2.40;99.90;;;;;;5055456;28;20337;-89
2024/01/28 04:53:57;;;;;;;3.00;2.80;;;2.30;99.90;;;;;;5055407;28;20215;-91
2024/01/28 04:56:23;;;;;;;0.70;0.70;;;2.50;99.90;;;;;;5071772;28;20184;-90
2024/01/28 04:58:49;;;;;;;1.03;1.03;;;2.20;99.90;;;;;;5055904;28;20185;-90
2024/01/28 05:01:15;;;;;;;1.33;1.30;;;2.40;99.90;;;;;;5072824;28;20228;-90
2024/01/28 05:03:41;;;;;;;1.63;1.53;;;2.10;99.90;;;;;;5055115;28;20217;-90
2024/01/28 05:06:07;;;;;;;2.87;2.33;;;2.30;99.90;;;;;;5038616;28;20213;-90
2024/01/28 05:08:33;;;;;;;2.83;2.63;;;2.30;99.90;;;;;;5038604;28;20275;-91
2024/01/28 05:10:59;;;;;;;1.77;1.67;;;2.10;99.90;;;;;;5056212;28;20208;-91
2024/01/28 05:13:24;;;;;;;1.10;1.00;;;2.20;99.90;;;;;;5056726;28;20243;-92
2024/01/28 05:15:50;;;;;;;1.23;1.20;;;2.20;99.90;;;;;;5076038;28;20300;-92
2024/01/28 05:18:16;;;;;;;3.50;2.40;;;2.30;99.90;;;;;;5042579;28;20236;-91
2024/01/28 05:20:43;;;;;;;3.10;2.90;;;2.00;99.90;;;;;;5075749;28;20213;-89
2024/01/28 05:23:09;;;;;;;2.97;2.83;;;2.00;99.90;;;;;;5043257;28;20181;-92
2024/01/28 05:25:35;;;;;;;3.90;3.60;;;2.20;99.90;;;;;;5058944;28;20224;-92
2024/01/28 05:28:02;;;;;;;0.80;0.80;;;2.10;99.90;;;;;;5059163;28;20217;-92
2024/01/28 05:30:29;;;;;;;1.37;1.37;;;2.30;99.90;;;;;;5059114;28;20308;-90
2024/01/28 05:32:55;;;;;;;1.63;1.53;;;2.20;99.90;;;;;;5059120;28;20672;-90
2024/01/28 05:35:21;;;;;;;1.80;1.70;;;2.20;99.90;;;;;;5058950;28;20177;-93
2024/01/28 05:37:47;;;;;;;5.23;2.43;;;2.00;99.90;;;;;;5059190;28;20192;-92
2024/01/28 05:40:12;;;;;;;1.80;1.70;;;2.30;99.90;;;;;;5058711;28;20217;-90
2024/01/28 05:42:38;;;;;;;2.30;1.67;;;2.00;99.90;;;;;;5042339;28;20602;-91
2024/01/28 05:45:04;;;;;;;2.47;2.27;;;2.20;99.90;;;;;;5041820;28;20247;-91
2024/01/28 05:47:30;;;;;;;1.87;1.73;;;2.00;99.90;;;;;;5058885;28;20273;-90
2024/01/28 05:49:56;;;;;;;1.63;1.53;;;2.10;99.90;;;;;;5042783;28;20741;-91
2024/01/28 05:52:22;;;;;;;4.20;2.80;;;2.20;99.90;;;;;;5041769;28;20313;-92
2024/01/28 05:54:48;;;;;;;1.90;1.80;;;1.90;99.90;;;;;;5075190;28;20228;-90
2024/01/28 05:57:14;;;;;;;2.20;1.60;;;1.90;99.90;;;;;;5058389;28;20252;-91
2024/01/28 05:59:40;;;;;;;2.13;1.93;;;2.10;99.90;;;;;;5041761;28;20208;-90
2024/01/28 06:02:06;;;;;;;2.57;1.67;;;2.10;99.90;;;;;;5058356;28;20189;-92
2024/01/28 06:04:32;;;;;;;2.37;1.80;;;1.80;99.90;;;;;;5058274;28;20209;-92
2024/01/28 06:06:59;;;;;;;5.83;1.73;;;1.80;99.90;;;;;;5074746;28;20221;-91
2024/01/28 06:09:24;;;;;;;1.30;0.80;;;1.80;99.90;;;;;;5075604;28;20225;-92
2024/01/28 06:11:50;;;;;;;1.67;1.67;;;2.00;99.90;;;;;;5058047;28;20640;-90
2024/01/28 06:14:16;;;;;;;0.83;0.83;;;1.90;99.90;;;;;;5057776;28;20189;-92
2024/01/28 06:16:42;;;;;;;1.93;1.77;;;1.80;99.90;;;;;;5041722;28;20686;-92
2024/01/28 06:19:08;;;;;;;1.37;1.27;;;1.70;99.90;;;;;;5057965;28;20225;-91
2024/01/28 06:21:33;;;;;;;2.00;1.90;;;1.60;99.90;;;;;;5057814;28;20274;-91
2024/01/28 06:23:59;;;;;;;1.60;1.60;;;1.70;99.90;;;;;;5057569;28;20216;-91
2024/01/28 06:26:25;;;;;;;2.73;1.73;;;1.60;99.90;;;;;;5040992;28;20177;-90
2024/01/28 06:28:51;;;;;;;2.00;1.90;;;1.60;99.90;;;;;;5058626;28;20197;-89
2024/01/28 06:31:18;;;;;;;1.87;1.60;;;1.50;99.90;;;;;;5040760;28;20236;-92
2024/01/28 06:33:44;;;;;;;2.60;2.50;;;1.80;99.90;;;;;;5041426;28;20213;-92
2024/01/28 06:36:18;;;;;;;2.23;2.10;;;1.50;99.90;;;;;;5057304;28;20217;-90
2024/01/28 06:38:44;;;;;;;2.03;1.23;;;1.60;99.90;;;;;;5057325;28;20224;-90
2024/01/28 06:41:10;;;;;;;2.47;1.87;;;1.80;99.90;;;;;;5057807;28;20260;-92
2024/01/28 06:43:36;;;;;;;1.00;1.00;;;1.80;99.90;;;;;;5040794;28;20303;-90
2024/01/28 06:46:01;;;;;;;1.67;1.57;;;1.70;99.90;;;;;;5057607;28;20217;-90
2024/01/28 06:48:27;;;;;;;3.23;3.03;;;1.90;99.90;;;;;;5057023;28;20217;-90
2024/01/28 06:50:53;;;;;;;2.10;2.07;;;1.60;99.90;;;;;;5073746;28;20224;-90
2024/01/28 06:53:19;;;;;;;2.33;2.23;;;1.80;99.90;;;;;;5056913;28;20201;-91
2024/01/28 06:55:45;;;;;;;0.53;0.53;;;1.70;99.90;;;;;;5057830;28;20173;-89
2024/01/28 06:58:11;;;;;;;1.33;1.33;;;1.50;99.90;;;;;;5073703;28;20218;-91
2024/01/28 07:00:36;;;;;;;2.23;2.13;;;1.50;99.90;;;;;;5073612;28;20671;-93
2024/01/28 07:03:02;;;;;;;1.33;1.33;;;1.50;99.90;;;;;;5056895;28;20625;-88
2024/01/28 07:05:28;;;;;;;0.80;0.80;;;1.70;99.90;;;;;;5073196;28;20173;-92
2024/01/28 07:07:54;;;;;;;1.40;1.30;;;1.50;99.90;;;;;;5074281;28;20499;-89
2024/01/28 07:10:19;;;;;;;1.00;1.00;;;1.80;99.90;;;;;;5056762;28;20645;-90
2024/01/28 07:12:45;;;;;;;0.57;0.57;;;1.70;99.90;;;;;;5056649;28;20629;-91
2024/01/28 07:15:11;;;;;;;1.37;1.37;;;1.80;99.90;;;;;;5039930;28;20213;-92
2024/01/28 07:17:37;;;;;;;3.90;1.97;;;1.50;99.90;;;;;;5056328;28;20247;-91
2024/01/28 07:20:03;;;;;;;1.47;1.47;;;1.70;99.90;;;;;;5040411;28;20193;-90
2024/01/28 07:22:29;;;;;;;0.93;0.93;;;1.80;99.90;;;;;;5056309;28;20215;-90
2024/01/28 07:24:54;;;;;;;22.37;2.33;;;1.60;99.90;;;;;;5039736;28;20217;-91
2024/01/28 07:27:21;;;;;;;0.80;0.80;;;1.70;99.90;;;;;;5056361;28;20212;-89
2024/01/28 07:29:47;;;;;;;0.57;0.57;;;1.50;99.90;;;;;;5039696;28;20283;-89
2024/01/28 07:32:13;;;;;;;2.23;1.43;;;1.50;99.90;;;;;;5056022;28;20688;-88
2024/01/28 07:34:40;;;;;;;1.40;1.33;;;1.50;99.90;;;;;;5056576;28;20178;-90
2024/01/28 07:37:06;;;;;;;2.37;1.13;;;1.90;99.90;;;;;;5038960;28;20225;-90
2024/01/28 07:39:32;;;;;;;10.30;1.90;;;1.80;99.90;;;;;;5072599;28;20221;-92
2024/01/28 07:42:00;;;;;;;6.57;2.70;;;1.80;99.90;;;;;;5056286;28;20235;-93
2024/01/28 07:44:26;;;;;;;1.33;1.33;;;2.00;99.90;;;;;;5073305;28;20637;-90
2024/01/28 07:46:53;;;;;;;0.80;0.80;;;2.20;99.90;;;;;;5074619;28;20182;-92
2024/01/28 07:49:21;;;;;;;0.83;0.83;;;2.50;99.90;;;;;;5072800;28;20225;-90
2024/01/28 07:51:47;;;;;;;1.50;1.40;;;2.30;99.90;;;;;;5056085;28;20243;-91
2024/01/28 07:54:14;;;;;;;3.00;2.17;;;2.20;99.90;;;;;;5055988;28;20216;-91
2024/01/28 07:56:39;;;;;;;1.20;1.00;;;2.10;99.90;;;;;;5073533;28;20236;-88
2024/01/28 07:59:05;;;;;;;1.97;1.87;;;2.30;99.90;;;;;;5056382;28;20213;-92
2024/01/28 08:01:32;;;;;;;0.73;0.73;;;2.30;99.90;;;;;;5055903;28;20255;-91
2024/01/28 08:03:58;;;;;;;1.73;1.63;;;2.30;99.90;;;;;;5072170;28;20313;-89
2024/01/28 08:06:24;;;;;;;2.50;2.30;;;2.60;99.90;;;;;;5055504;28;20233;-90
2024/01/28 08:08:50;;;;;;;1.63;1.60;;;2.40;99.90;;;;;;5055576;28;20294;-90
2024/01/28 08:11:16;;;;;;;1.50;1.50;;;2.10;99.90;;;;;;5038903;28;20581;-90
2024/01/28 08:13:42;;;;;;;2.80;2.60;;;2.00;99.90;;;;;;5072645;28;20178;-91
2024/01/28 08:16:07;;;;;;;0.93;0.93;;;2.00;99.90;;;;;;5038597;28;20213;-90
2024/01/28 08:18:33;;;;;;;0.97;0.97;;;2.60;99.90;;;;;;5072128;28;20654;-91
2024/01/28 08:20:59;;;;;;;1.83;1.73;;;3.00;99.90;;;;;;5055500;28;20216;-90
2024/01/28 08:23:29;;;;;;;0.50;0.50;;;3.20;99.90;;;;;;5055296;28;20202;-90
2024/01/28 08:25:55;;;;;;;1.70;1.60;;;3.40;99.90;;;;;;5055761;28;20173;-88
2024/01/28 08:28:21;;;;;;;1.13;1.10;;;3.60;99.90;;;;;;5054837;28;20228;-90
2024/01/28 08:30:47;;;;;;;2.70;2.50;;;3.40;99.90;;;;;;5038291;28;20209;-90
2024/01/28 08:33:13;;;;;;;2.27;2.13;;;3.30;99.90;;;;;;5055403;28;20217;-89
2024/01/28 08:35:39;;;;;;;2.17;2.07;;;3.20;99.90;;;;;;5054964;28;20217;-91
2024/01/28 08:38:05;;;;;;;0.83;0.83;;;3.20;99.90;;;;;;5038818;28;20188;-90
2024/01/28 08:40:31;;;;;;;1.47;1.37;;;3.00;99.90;;;;;;5055184;28;20225;-90
2024/01/28 08:42:57;;;;;;;1.00;1.00;;;3.30;99.90;;;;;;5055159;28;20270;-90
2024/01/28 08:45:23;;;;;;;1.30;1.30;;;3.10;99.90;;;;;;5071537;28;20698;-91
2024/01/28 08:47:49;;;;;;;2.90;2.70;;;3.10;99.90;;;;;;5055334;28;20599;-90
2024/01/28 08:50:16;;;;;;;4.70;2.50;;;3.40;99.90;;;;;;5072201;28;20585;-90
2024/01/28 08:52:42;;;;;;;3.40;1.40;;;3.40;99.90;;;;;;5055637;28;20538;-91
2024/01/28 08:55:09;;;;;;;1.60;1.50;;;3.50;99.90;;;;;;5054937;28;20228;-90
2024/01/28 08:57:35;;;;;;;3.10;2.30;;;3.40;99.90;;;;;;5038790;28;20291;-90
2024/01/28 09:00:01;;;;;;;2.37;2.17;;;3.60;99.90;;;;;;5054576;28;20224;-91
2024/01/28 09:02:27;;;;;;;2.80;2.60;;;3.50;99.90;;;;;;5055039;28;20629;-89
2024/01/28 09:04:53;;;;;;;0.83;0.83;;;3.40;99.90;;;;;;5055891;28;20178;-89
2024/01/28 09:07:18;;;;;;;1.97;1.87;;;3.40;99.90;;;;;;5054594;28;20236;-88
2024/01/28 09:09:44;;;;;;;2.40;2.23;;;3.20;99.90;;;;;;5037788;28;20271;-88
2024/01/28 09:12:10;;;;;;;1.90;1.80;;;3.40;99.90;;;;;;5071459;28;20217;-88
2024/01/28 09:14:36;;;;;;;2.03;1.93;;;3.40;99.90;;;;;;5054900;28;20213;-88
2024/01/28 09:17:02;;;;;;;1.53;1.13;;;3.30;99.90;;;;;;5038646;28;20257;-88
2024/01/28 09:19:28;;;;;;;2.27;2.17;;;3.30;99.90;;;;;;5054997;28;20213;-88
2024/01/28 09:21:55;;;;;;;1.20;1.20;;;3.20;99.90;;;;;;5038254;28;20213;-89
2024/01/28 09:24:20;;;;;;;1.67;1.57;;;3.20;99.90;;;;;;5054719;28;20233;-88
2024/01/28 09:26:46;;;;;;;1.87;1.70;;;3.30;99.90;;;;;;5037918;28;20263;-88
2024/01/28 09:29:12;;;;;;;1.70;1.60;;;3.30;99.90;;;;;;5071883;28;20237;-88
2024/01/28 09:31:38;;;;;;;2.03;1.93;;;3.30;99.90;;;;;;5054851;28;20271;-88
2024/01/28 09:34:04;;;;;;;0.87;0.87;;;3.50;99.90;;;;;;5071490;28;20225;-91
2024/01/28 09:36:30;;;;;;;1.27;0.97;;;3.40;99.90;;;;;;5072580;28;20321;-87
2024/01/28 09:39:00;;;;;;;1.10;0.80;;;3.50;99.90;;;;;;5071803;28;20660;-90
2024/01/28 09:41:43;;;;;;;2.60;2.37;;;3.60;99.90;;;;;;5055235;28;20181;-93
2024/01/28 09:44:09;;;;;;;2.00;1.90;;;3.80;99.90;;;;;;5056083;28;20624;-90
2024/01/28 09:46:36;;;;;;;1.50;1.50;;;3.80;99.90;;;;;;5054682;28;20676;-90
2024/01/28 09:49:03;;;;;;;1.23;1.23;;;3.90;99.90;;;;;;5072269;28;20316;-90
2024/01/28 09:51:29;;;;;;;2.83;2.27;;;4.00;99.90;;;;;;5054712;28;20224;-89
2024/01/28 09:53:55;;;;;;;2.40;2.23;;;4.00;99.90;;;;;;5038188;28;20221;-91
2024/01/28 09:56:22;;;;;;;0.93;0.93;;;4.20;99.90;;;;;;5054830;28;20181;-90
2024/01/28 09:58:48;;;;;;;2.20;1.60;;;4.20;99.90;;;;;;5055067;28;20200;-89
2024/01/28 10:01:14;;;;;;;1.73;1.63;;;4.30;99.90;;;;;;5041439;28;20252;-89
2024/01/28 10:03:41;;;;;;;2.20;2.10;;;4.30;99.90;;;;;;5058368;28;20261;-89
2024/01/28 10:06:07;;;;;;;4.80;4.50;;;4.40;99.90;;;;;;5075576;28;20709;-88
2024/01/28 10:08:33;;;;;;;1.83;1.80;;;4.40;99.90;;;;;;5074697;28;20217;-89
2024/01/28 10:11:01;;;;;;;4.70;2.23;;;4.50;99.90;;;;;;5042084;28;20177;-88
2024/01/28 10:13:28;;;;;;;0.87;0.87;;;4.70;99.90;;;;;;5076103;28;20224;-89
2024/01/28 10:15:57;;;;;;;1.70;1.60;;;4.70;99.90;;;;;;5058165;28;20217;-89
2024/01/28 10:18:24;;;;;;;1.20;1.20;;;4.80;99.90;;;;;;5091749;28;20228;-90
2024/01/28 10:20:50;;;;;;;3.10;1.43;;;5.00;99.90;;;;;;5057548;28;20288;-88
2024/01/28 10:23:17;;;;;;;2.70;2.27;;;5.00;99.90;;;;;;5075425;28;20224;-90
2024/01/28 10:25:44;;;;;;;2.23;2.13;;;5.10;99.90;;;;;;5041805;28;20181;-88
2024/01/28 10:28:09;;;;;;;0.83;0.83;;;5.10;99.90;;;;;;5041407;28;20213;-88
2024/01/28 10:30:35;;;;;;;3.70;2.37;;;5.10;99.90;;;;;;5057234;28;20593;-90
2024/01/28 10:33:01;;;;;;;1.10;1.10;;;5.20;99.90;;;;;;5041006;28;20225;-89
2024/01/28 10:35:28;;;;;;;1.00;1.00;;;5.30;99.90;;;;;;5074053;28;20268;-89
2024/01/28 10:37:56;;;;;;;1.20;1.10;;;5.40;99.90;;;;;;5057873;28;20281;-90
2024/01/28 10:40:29;;;;;;;3.33;2.53;;;5.50;99.90;;;;;;5075371;28;20673;-89
2024/01/28 10:42:59;;;;;;;1.63;1.53;;;5.50;99.90;;;;;;5057964;28;20224;-89
2024/01/28 10:45:27;;;;;;;1.03;1.03;;;5.50;99.90;;;;;;5075372;28;20711;-88
2024/01/28 10:47:54;;;;;;;1.60;1.53;;;5.60;99.90;;;;;;5056945;28;20213;-91
2024/01/28 10:50:21;;;;;;;1.37;1.33;;;5.70;99.90;;;;;;5074668;28;20213;-88
2024/01/28 10:52:52;;;;;;;2.60;1.30;;;5.80;99.90;;;;;;5057472;28;20252;-88
2024/01/28 10:55:20;;;;;;;1.23;1.13;;;5.90;99.90;;;;;;5056886;28;20220;-88
2024/01/28 10:57:47;;;;;;;2.30;1.37;;;6.00;99.90;;;;;;5057202;28;20213;-88
2024/01/28 11:00:16;;;;;;;0.47;0.47;;;6.20;99.90;;;;;;5040509;28;20216;-89
2024/01/28 11:02:42;;;;;;;0.80;0.80;;;6.20;99.90;;;;;;5073006;28;20213;-87
2024/01/28 11:05:09;;;;;;;2.20;1.60;;;6.30;99.90;;;;;;5057409;28;20178;-87
2024/01/28 11:07:36;;;;;;;1.50;1.40;;;6.50;99.90;;;;;;5056548;28;20209;-87
2024/01/28 11:10:05;;;;;;;1.93;1.83;;;6.50;99.90;;;;;;5039816;28;20229;-89
2024/01/28 11:12:32;;;;;;;1.77;1.67;;;6.60;99.90;;;;;;5056252;28;20217;-88
2024/01/28 11:14:59;;;;;;;2.93;2.10;;;6.70;99.90;;;;;;5057396;28;20216;-89
2024/01/28 11:17:32;;;;;;;1.87;1.70;;;6.70;99.90;;;;;;5039951;28;20173;-88
2024/01/28 11:20:09;;;;;;;3.37;1.97;;;6.70;99.90;;;;;;5040456;28;20610;-89
2024/01/28 11:22:59;;;;;;;3.97;2.13;;;6.80;99.90;;;;;;5056656;28;20220;-86
2024/01/28 11:25:26;;;;;;;1.50;0.93;;;6.90;99.90;;;;;;5073945;28;20224;-90
2024/01/28 11:27:58;;;;;;;1.03;0.80;;;6.90;99.90;;;;;;5039972;28;20217;-90
2024/01/28 11:30:24;;;;;;;1.67;1.57;;;7.00;99.90;;;;;;5056444;28;20723;-90
2024/01/28 11:32:53;;;;;;;1.53;1.43;;;7.00;99.90;;;;;;5056305;28;20229;-89
2024/01/28 11:35:19;;;;;;;2.60;2.50;;;7.10;99.90;;;;;;5040313;28;20196;-88
2024/01/28 11:37:58;;;;;;;1.80;1.70;;;7.10;99.90;;;;;;5056916;28;20231;-89
2024/01/28 11:40:29;;;;;;;0.80;0.80;;;7.20;99.90;;;;;;5039900;28;20224;-87
2024/01/28 11:42:56;;;;;;;5.27;1.87;;;7.20;99.90;;;;;;5060833;28;20729;-88
2024/01/28 11:45:24;;;;;;;1.60;1.00;;;7.30;99.90;;;;;;5042171;28;20213;-89
2024/01/28 11:47:50;;;;;;;5.03;2.03;;;7.40;99.90;;;;;;5055899;28;20262;-88
2024/01/28 11:50:16;;;;;;;1.33;1.33;;;7.50;99.90;;;;;;5039823;28;20236;-90
2024/01/28 11:52:45;;;;;;;1.83;1.73;;;7.60;99.90;;;;;;5056404;28;20188;-91
2024/01/28 11:55:16;;;;;;;1.23;1.20;;;7.70;99.90;;;;;;5056105;28;20217;-89
2024/01/28 11:57:44;;;;;;;1.40;1.40;;;7.70;99.90;;;;;;5073356;28;20220;-88
2024/01/28 12:00:11;;;;;;;3.03;2.77;;;7.80;99.90;;;;;;5072388;28;20232;-89
2024/01/28 12:02:37;;;;;;;0.67;0.67;;;8.00;99.90;;;;;;5038854;28;20219;-91
2024/01/28 12:05:04;;;;;;;1.00;1.00;;;8.00;99.90;;;;;;5056382;28;20184;-90
2024/01/28 12:07:49;;;;;;;1.53;1.40;;;8.00;99.90;;;;;;5071924;28;20221;-90
2024/01/28 12:10:16;;;;;;;0.67;0.67;;;8.00;99.90;;;;;;5073641;28;20645;-89
2024/01/28 12:12:42;;;;;;;1.77;1.57;;;7.90;99.90;;;;;;5072361;28;20241;-89
2024/01/28 12:15:13;;;;;;;1.40;1.30;;;7.90;99.90;;;;;;5039007;28;20240;-89
2024/01/28 12:17:40;;;;;;;0.83;0.83;;;7.80;99.90;;;;;;5055664;28;20217;-88
2024/01/28 12:20:07;;;;;;;1.43;1.37;;;7.90;99.90;;;;;;5039341;28;20182;-89
2024/01/28 12:22:40;;;;;;;1.20;1.10;;;7.90;99.90;;;;;;5038768;28;20229;-90
2024/01/28 12:25:13;;;;;;;0.93;0.93;;;7.90;99.90;;;;;;5073234;28;20213;-89
2024/01/28 12:27:40;;;;;;;2.37;1.70;;;7.90;99.90;;;;;;5055437;28;20268;-90
2024/01/28 12:30:10;;;;;;;0.60;0.60;;;7.90;99.90;;;;;;5055593;28;20229;-88
2024/01/28 12:32:39;;;;;;;1.07;0.87;;;8.00;99.90;;;;;;5038579;28;20229;-89
2024/01/28 12:35:07;;;;;;;1.90;1.30;;;8.10;99.90;;;;;;5039550;28;20522;-89
2024/01/28 12:37:37;;;;;;;1.50;1.13;;;8.10;99.90;;;;;;5038691;28;20563;-85
2024/01/28 12:40:03;;;;;;;1.00;0.90;;;8.20;99.90;;;;;;5055262;28;20221;-87
2024/01/28 12:42:30;;;;;;;1.50;1.07;;;8.10;99.90;;;;;;5038273;28;20749;-87
2024/01/28 12:44:56;;;;;;;3.00;0.97;;;8.00;99.90;;;;;;5071787;28;20224;-89
2024/01/28 12:47:22;;;;;;;1.17;1.07;;;8.00;99.90;;;;;;5038315;28;20181;-88
2024/01/28 12:49:47;;;;;;;5.53;1.97;;;8.00;99.90;;;;;;5056078;28;20201;-90
2024/01/28 12:52:14;;;;;;;0.90;0.90;;;8.10;99.90;;;;;;5071760;28;20612;-88
2024/01/28 12:54:39;;;;;;;0.93;0.93;;;8.10;99.90;;;;;;5055181;28;20240;-89